Time;durP1;ratioP1;P1;durP2;ratioP2;P2;SDS_P1;SDS_P2;PMS_P1;PMS_P2;Temp;Humidity;BMP_temperature;BMP_pressure;BME280_temperature;BME280_humidity;BME280_pressure;Samples;Min_cycle;Max_cycle;Signal;HPM_P1;HPM_P2
2022/12/10 00:01:53;;;;;;;49.20;32.57;;;;;;;0.45;100.00;95471.06;5022020;28;20694;-62
2022/12/10 00:04:19;;;;;;;50.60;31.53;;;;;;;0.22;100.00;95476.56;5034836;28;20178;-62
2022/12/10 00:06:44;;;;;;;50.47;31.50;;;;;;;0.26;100.00;95481.13;5031916;28;20179;-62
2022/12/10 00:09:15;;;;;;;51.37;32.20;;;;;;;0.15;100.00;95468.00;5015507;28;20284;-61
2022/12/10 00:11:42;;;;;;;48.77;30.80;;;;;;;0.26;100.00;95463.09;5014261;28;20612;-63
2022/12/10 00:14:08;;;;;;;52.63;30.83;;;;;;;0.17;100.00;95464.25;5013886;28;20172;-60
2022/12/10 00:16:34;;;;;;;51.63;33.27;;;;;;;0.30;100.00;95466.84;5025900;28;20221;-60
2022/12/10 00:19:00;;;;;;;51.50;32.40;;;;;;;0.37;100.00;95472.03;5013539;28;20738;-56
2022/12/10 00:21:28;;;;;;;52.57;32.97;;;;;;;0.38;100.00;95473.63;5013350;28;20207;-60
2022/12/10 00:23:54;;;;;;;48.13;31.37;;;;;;;0.26;100.00;95470.03;4995379;28;20184;-61
2022/12/10 00:26:23;;;;;;;55.80;33.87;;;;;;;0.34;100.00;95473.19;4994405;28;20164;-61
2022/12/10 00:28:49;;;;;;;54.47;33.23;;;;;;;0.39;100.00;95468.25;4994216;28;20227;-61
2022/12/10 00:31:20;;;;;;;52.93;32.23;;;;;;;0.48;100.00;95468.88;4994071;28;20195;-61
2022/12/10 00:33:46;;;;;;;51.53;33.03;;;;;;;0.29;100.00;95467.03;5004581;28;20181;-61
2022/12/10 00:36:17;;;;;;;53.03;35.50;;;;;;;0.17;100.00;95464.25;5013723;28;20489;-61
2022/12/10 00:38:43;;;;;;;52.00;32.93;;;;;;;0.24;100.00;95461.69;5013734;28;20261;-62
2022/12/10 00:41:17;;;;;;;53.70;33.37;;;;;;;0.12;100.00;95465.81;5013800;28;20567;-61
2022/12/10 00:43:43;;;;;;;53.17;32.47;;;;;;;0.28;100.00;95471.41;5013605;28;20270;-61
2022/12/10 00:46:12;;;;;;;54.50;33.43;;;;;;;0.11;100.00;95467.63;5013861;28;20254;-61
2022/12/10 00:48:37;;;;;;;55.23;34.27;;;;;;;0.17;100.00;95469.41;5013620;28;20235;-59
2022/12/10 00:51:29;;;;;;;53.67;32.27;;;;;;;0.26;100.00;95475.19;5012679;28;20237;-62
2022/12/10 00:53:56;;;;;;;55.83;33.97;;;;;;;0.31;100.00;95473.59;5008701;28;20199;-62
2022/12/10 00:56:25;;;;;;;52.07;33.37;;;;;;;0.25;100.00;95469.22;5013341;28;20176;-63
2022/12/10 00:58:51;;;;;;;53.73;34.10;;;;;;;0.28;100.00;95475.78;5013395;28;20294;-63
2022/12/10 01:01:16;;;;;;;51.77;33.63;;;;;;;0.16;100.00;95474.75;5014416;28;20261;-63
2022/12/10 01:03:42;;;;;;;53.90;33.07;;;;;;;0.29;100.00;95479.94;5024337;28;20199;-62
2022/12/10 01:06:14;;;;;;;51.77;34.33;;;;;;;0.44;100.00;95478.00;5013488;28;20182;-63
2022/12/10 01:08:41;;;;;;;55.40;33.20;;;;;;;0.38;100.00;95479.56;5013377;28;20237;-60
2022/12/10 01:11:07;;;;;;;50.70;34.07;;;;;;;0.37;100.00;95495.22;5013040;28;20155;-60
2022/12/10 01:13:32;;;;;;;50.67;33.90;;;;;;;0.29;100.00;95493.59;5013196;28;20164;-59
2022/12/10 01:16:01;;;;;;;48.87;32.10;;;;;;;0.19;100.00;95498.34;4995316;28;20267;-61
2022/12/10 01:18:27;;;;;;;49.37;32.93;;;;;;;0.20;100.00;95493.97;4995856;28;20281;-60
2022/12/10 01:20:52;;;;;;;48.67;31.17;;;;;;;0.18;100.00;95496.75;5012735;28;20329;-59
2022/12/10 01:23:18;;;;;;;51.93;32.83;;;;;;;0.20;100.00;95504.28;5011187;28;20187;-60
2022/12/10 01:25:43;;;;;;;46.47;31.67;;;;;;;0.26;100.00;95495.78;5013004;28;20179;-61
2022/12/10 01:28:08;;;;;;;50.63;32.47;;;;;;;0.32;100.00;95513.06;5012885;28;20210;-60
2022/12/10 01:30:34;;;;;;;54.60;32.97;;;;;;;0.35;100.00;95515.22;5013120;28;20199;-59
2022/12/10 01:32:59;;;;;;;49.13;31.90;;;;;;;0.36;100.00;95512.47;5013397;28;20190;-61
2022/12/10 01:35:25;;;;;;;51.50;32.87;;;;;;;0.38;100.00;95513.06;5013697;28;20249;-62
2022/12/10 01:37:50;;;;;;;54.00;32.93;;;;;;;0.43;100.00;95514.25;5013100;28;20206;-62
2022/12/10 01:40:16;;;;;;;49.63;31.67;;;;;;;0.13;100.00;95514.56;5012768;28;20171;-62
2022/12/10 01:42:41;;;;;;;54.80;31.73;;;;;;;0.22;100.00;95534.03;5012843;28;20183;-62
2022/12/10 01:45:11;;;;;;;48.23;32.40;;;;;;;0.29;100.00;95534.03;5013007;28;20176;-62
2022/12/10 01:47:40;;;;;;;49.33;30.47;;;;;;;0.34;100.00;95539.41;5012972;28;20547;-62
2022/12/10 01:50:07;;;;;;;50.20;32.13;;;;;;;0.34;100.00;95540.19;5012113;28;20172;-62
2022/12/10 01:52:33;;;;;;;47.93;31.43;;;;;;;0.34;100.00;95535.03;5012574;28;20193;-61
2022/12/10 01:54:58;;;;;;;47.93;31.40;;;;;;;0.45;100.00;95541.41;5012592;28;20183;-62
2022/12/10 01:57:26;;;;;;;53.43;33.63;;;;;;;0.32;100.00;95534.47;5012702;28;20223;-62
2022/12/10 01:59:58;;;;;;;47.03;32.13;;;;;;;0.08;100.00;95534.16;5012622;28;20194;-62
2022/12/10 02:02:32;;;;;;;48.60;31.00;;;;;;;0.20;100.00;95536.00;5017693;28;20602;-62
2022/12/10 02:05:26;;;;;;;48.33;30.20;;;;;;;0.08;100.00;95524.66;5031940;28;20183;-61
2022/12/10 02:08:31;;;;;;;45.37;31.30;;;;;;;0.20;100.00;95530.06;5030644;28;20282;-62
2022/12/10 02:11:17;;;;;;;50.67;31.07;;;;;;;0.16;100.00;95527.06;5031786;28;20620;-61
2022/12/10 02:14:18;;;;;;;47.90;30.90;;;;;;;0.13;100.00;95527.44;5033620;28;20179;-59
2022/12/10 02:17:01;;;;;;;48.30;31.67;;;;;;;0.16;100.00;95526.28;5031066;28;20316;-62
2022/12/10 02:19:54;;;;;;;46.10;30.43;;;;;;;0.13;100.00;95519.72;5018453;28;20824;-61
2022/12/10 02:22:28;;;;;;;49.03;31.60;;;;;;;0.17;100.00;95523.50;5017647;28;20222;-61
2022/12/10 02:25:03;;;;;;;46.50;31.00;;;;;;;0.13;100.00;95526.66;5019226;28;20174;-61
2022/12/10 02:27:40;;;;;;;47.43;30.97;;;;;;;0.18;100.00;95535.38;5023526;28;20178;-62
2022/12/10 02:30:11;;;;;;;50.57;32.13;;;;;;;0.33;100.00;95527.53;5015959;28;20221;-62
2022/12/10 02:32:41;;;;;;;48.30;31.20;;;;;;;0.30;100.00;95520.97;4998419;28;20187;-62
2022/12/10 02:35:13;;;;;;;52.03;31.70;;;;;;;0.17;100.00;95522.72;5016187;28;20182;-62
2022/12/10 02:37:48;;;;;;;50.63;32.03;;;;;;;0.16;100.00;95509.03;5015797;28;20201;-61
2022/12/10 02:40:19;;;;;;;50.03;32.07;;;;;;;0.18;100.00;95511.41;5015926;28;20175;-61
2022/12/10 02:42:51;;;;;;;45.87;31.03;;;;;;;0.17;100.00;95509.84;5015857;28;20192;-62
2022/12/10 02:45:25;;;;;;;52.10;31.70;;;;;;;0.14;100.00;95516.16;5015946;28;20171;-62
2022/12/10 02:47:54;;;;;;;47.87;30.77;;;;;;;0.18;100.00;95504.47;5015670;28;20199;-60
2022/12/10 02:50:26;;;;;;;45.47;30.83;;;;;;;0.08;100.00;95498.09;5015399;28;20183;-61
2022/12/10 02:52:51;;;;;;;46.87;29.73;;;;;;;0.07;100.00;95502.47;5015427;28;20191;-61
2022/12/10 02:55:22;;;;;;;47.10;30.27;;;;;;;0.18;100.00;95506.25;5015614;28;20209;-60
2022/12/10 02:58:12;;;;;;;48.10;30.23;;;;;;;0.06;100.00;95493.13;5015490;28;20203;-60
2022/12/10 03:03:48;;;;;;;48.23;28.60;;;;;;;-0.04;100.00;95493.50;5043340;28;20625;-61
2022/12/10 03:06:44;;;;;;;48.27;29.17;;;;;;;-0.27;100.00;95513.59;5015056;28;20183;-56
2022/12/10 03:09:51;;;;;;;41.93;28.07;;;;;;;0.04;100.00;95504.63;5046311;28;20670;-58
2022/12/10 03:12:51;;;;;;;46.43;29.50;;;;;;;0.00;100.00;95502.44;5054763;28;20170;-58
2022/12/10 03:15:20;;;;;;;47.83;30.53;;;;;;;0.02;100.00;95488.56;5042081;28;20276;-60
2022/12/10 03:17:47;;;;;;;49.23;31.37;;;;;;;-0.13;100.00;95486.94;5054705;28;20201;-62
2022/12/10 03:20:14;;;;;;;51.13;30.83;;;;;;;-0.02;100.00;95480.44;5051372;28;20777;-60
2022/12/10 03:22:44;;;;;;;47.83;30.13;;;;;;;0.11;100.00;95490.81;5034823;28;20198;-60
2022/12/10 03:25:11;;;;;;;49.57;30.23;;;;;;;0.20;100.00;95489.63;5034278;28;20198;-59
2022/12/10 03:27:40;;;;;;;44.77;28.67;;;;;;;0.17;100.00;95489.22;5048958;28;20222;-58
2022/12/10 03:30:06;;;;;;;48.13;30.00;;;;;;;0.15;100.00;95488.63;5054492;28;20667;-60
2022/12/10 03:32:32;;;;;;;48.97;30.93;;;;;;;0.13;100.00;95486.22;5054194;28;20280;-55
2022/12/10 03:35:00;;;;;;;47.70;31.00;;;;;;;0.17;100.00;95474.53;5054368;28;20166;-62
2022/12/10 03:37:38;;;;;;;47.23;30.20;;;;;;;0.07;100.00;95470.75;5054198;28;20166;-62
2022/12/10 03:40:14;;;;;;;48.90;30.13;;;;;;;0.02;100.00;95480.84;5054372;28;20241;-62
2022/12/10 03:42:42;;;;;;;45.13;30.20;;;;;;;0.02;100.00;95475.69;5053803;28;20216;-62
2022/12/10 03:45:10;;;;;;;45.03;29.47;;;;;;;0.06;100.00;95474.34;5054070;28;20244;-62
2022/12/10 03:47:44;;;;;;;50.67;31.17;;;;;;;0.03;100.00;95470.34;5054286;28;20214;-62
2022/12/10 03:50:13;;;;;;;47.00;30.40;;;;;;;0.06;100.00;95471.75;5048422;28;20243;-62
2022/12/10 03:52:41;;;;;;;47.80;29.90;;;;;;;-0.01;100.00;95494.91;5034080;28;20524;-62
2022/12/10 03:55:19;;;;;;;51.73;29.70;;;;;;;0.12;100.00;95497.50;5033849;28;20186;-60
2022/12/10 03:57:48;;;;;;;46.97;31.03;;;;;;;0.27;100.00;95492.22;5033672;28;20208;-61
2022/12/10 04:00:13;;;;;;;42.43;28.07;;;;;;;0.26;100.00;95494.00;5033642;28;20183;-60
2022/12/10 04:02:50;;;;;;;42.53;29.40;;;;;;;0.22;100.00;95503.13;5035798;28;20279;-61
2022/12/10 04:05:21;;;;;;;46.23;30.87;;;;;;;0.40;100.00;95508.50;5053947;28;20243;-61
2022/12/10 04:08:02;;;;;;;46.23;30.27;;;;;;;0.41;100.00;95510.09;5054065;28;20543;-62
2022/12/10 04:10:30;;;;;;;45.30;30.33;;;;;;;0.45;100.00;95509.72;5035997;28;20165;-60
2022/12/10 04:18:24;;;;;;;45.03;30.03;;;;;;;0.35;100.00;95516.03;5053769;28;20730;-62
2022/12/10 04:29:20;;;;;;;42.07;28.80;;;;;;;0.16;100.00;95523.69;5050246;28;20229;-59
2022/12/10 04:31:45;;;;;;;43.97;29.20;;;;;;;0.12;100.00;95527.63;5034478;28;20209;-61
2022/12/10 04:34:25;;;;;;;41.07;28.47;;;;;;;0.31;100.00;95530.28;5053479;28;20170;-62
2022/12/10 04:36:57;;;;;;;40.83;27.43;;;;;;;0.26;100.00;95535.22;5051936;28;20230;-61
2022/12/10 04:39:25;;;;;;;39.47;28.53;;;;;;;0.48;100.00;95535.88;5053361;28;20251;-62
2022/12/10 04:41:57;;;;;;;42.70;27.80;;;;;;;0.36;100.00;95537.44;5053418;28;20225;-61
2022/12/10 04:44:28;;;;;;;41.37;26.97;;;;;;;0.35;100.00;95530.69;5053263;28;20174;-62
2022/12/10 04:46:53;;;;;;;41.27;28.13;;;;;;;0.40;100.00;95539.44;5053050;28;20224;-60
2022/12/10 04:49:19;;;;;;;40.47;27.77;;;;;;;0.53;100.00;95535.28;5053137;28;20202;-61
2022/12/10 04:51:45;;;;;;;37.57;26.57;;;;;;;0.45;100.00;95538.84;5052173;28;20280;-61
2022/12/10 04:54:12;;;;;;;38.87;26.97;;;;;;;0.35;100.00;95536.63;5053184;28;20182;-61
2022/12/10 04:56:37;;;;;;;39.37;26.13;;;;;;;0.22;100.00;95534.03;5053014;28;20169;-62
2022/12/10 04:59:04;;;;;;;39.97;27.13;;;;;;;0.30;100.00;95539.00;5053430;28;20202;-61
2022/12/10 05:01:31;;;;;;;41.67;27.23;;;;;;;0.43;100.00;95535.69;5044814;28;20226;-57
2022/12/10 05:04:01;;;;;;;37.63;26.40;;;;;;;0.34;100.00;95537.63;5045607;28;20224;-62
2022/12/10 05:06:27;;;;;;;39.83;25.03;;;;;;;0.33;100.00;95532.69;5052826;28;20209;-61
2022/12/10 05:08:52;;;;;;;41.07;27.00;;;;;;;0.17;100.00;95533.78;5044336;28;20667;-56
2022/12/10 05:11:20;;;;;;;39.70;27.10;;;;;;;0.20;100.00;95530.84;5032904;28;20166;-59
2022/12/10 05:13:46;;;;;;;41.80;27.17;;;;;;;0.18;100.00;95532.81;5032881;28;20175;-55
2022/12/10 05:16:15;;;;;;;39.73;25.83;;;;;;;0.16;100.00;95534.00;5032818;28;20167;-59
2022/12/10 05:18:41;;;;;;;40.53;27.23;;;;;;;-0.07;100.00;95535.09;5032864;28;20190;-61
2022/12/10 05:21:12;;;;;;;39.47;26.47;;;;;;;-0.09;100.00;95538.84;5039852;28;20206;-58
2022/12/10 05:23:39;;;;;;;43.70;28.20;;;;;;;0.02;100.00;95535.72;5052533;28;20635;-57
2022/12/10 05:26:22;;;;;;;38.70;27.17;;;;;;;-0.27;100.00;95536.75;5052731;28;20260;-59
2022/12/10 05:28:50;;;;;;;39.10;25.00;;;;;;;-0.30;100.00;95533.78;5052673;28;20205;-60
2022/12/10 05:31:28;;;;;;;40.07;27.03;;;;;;;-0.10;100.00;95544.97;5035236;28;20272;-58
2022/12/10 05:33:55;;;;;;;38.73;25.70;;;;;;;-0.14;100.00;95539.41;5049487;28;20178;-60
2022/12/10 05:36:25;;;;;;;44.73;27.90;;;;;;;-0.18;100.00;95545.16;5051782;28;20174;-60
2022/12/10 05:38:52;;;;;;;42.20;28.77;;;;;;;-0.31;100.00;95539.91;5041846;28;20230;-60
2022/12/10 05:41:20;;;;;;;40.90;28.43;;;;;;;-0.43;100.00;95537.88;5050813;28;20710;-60
2022/12/10 05:43:47;;;;;;;42.03;28.83;;;;;;;-0.45;100.00;95544.22;5047412;28;20179;-61
2022/12/10 05:46:15;;;;;;;43.57;29.13;;;;;;;-0.45;100.00;95541.63;5032662;28;20171;-62
2022/12/10 05:48:41;;;;;;;47.30;28.37;;;;;;;-0.59;100.00;95548.47;5068025;22;20237;-76
2022/12/10 05:51:08;;;;;;;47.63;29.53;;;;;;;-0.51;100.00;95545.75;5075928;28;20184;-77
2022/12/10 05:53:34;;;;;;;42.93;27.33;;;;;;;-0.53;100.00;95542.56;5077052;28;20634;-76
2022/12/10 05:56:06;;;;;;;44.60;29.93;;;;;;;-0.65;100.00;95540.69;5077159;28;20238;-76
2022/12/10 05:58:31;;;;;;;49.97;29.90;;;;;;;-0.69;100.00;95548.00;5076947;28;20234;-77
2022/12/10 06:00:57;;;;;;;43.73;30.17;;;;;;;-0.65;100.00;95550.97;5076684;28;20634;-77
2022/12/10 06:03:23;;;;;;;50.30;30.23;;;;;;;-0.59;100.00;95560.53;5076661;28;20179;-77
2022/12/10 06:05:48;;;;;;;51.87;31.17;;;;;;;-0.54;100.00;95553.84;5067189;28;20170;-76
2022/12/10 06:08:14;;;;;;;46.97;29.97;;;;;;;-0.58;100.00;95562.13;5056569;28;20182;-76
2022/12/10 06:10:39;;;;;;;48.00;29.47;;;;;;;-0.59;100.00;95566.47;5056693;28;20240;-76
2022/12/10 06:13:05;;;;;;;51.00;30.40;;;;;;;-0.51;100.00;95576.63;5056254;28;20174;-76
2022/12/10 06:15:31;;;;;;;49.67;30.73;;;;;;;-0.47;100.00;95577.84;5056337;28;20597;-76
2022/12/10 06:17:57;;;;;;;48.17;31.57;;;;;;;-0.61;100.00;95573.56;5056249;28;20181;-76
2022/12/10 06:20:23;;;;;;;53.73;29.83;;;;;;;-0.59;100.00;95570.81;5056112;28;20551;-76
2022/12/10 06:22:49;;;;;;;51.63;32.00;;;;;;;-0.73;100.00;95576.84;5056067;28;20194;-75
2022/12/10 06:25:14;;;;;;;45.27;29.10;;;;;;;-0.78;100.00;95579.19;5055956;28;20571;-77
2022/12/10 06:27:40;;;;;;;55.87;34.40;;;;;;;-0.81;100.00;95585.50;5055909;28;20200;-77
2022/12/10 06:30:06;;;;;;;47.67;30.33;;;;;;;-0.86;100.00;95580.91;5056202;28;20174;-77
2022/12/10 06:32:31;;;;;;;49.27;31.40;;;;;;;-0.91;100.00;95578.09;5055805;28;20190;-77
2022/12/10 06:34:56;;;;;;;48.57;30.90;;;;;;;-0.87;100.00;95588.81;5037857;28;20227;-77
2022/12/10 06:37:22;;;;;;;48.97;30.67;;;;;;;-0.85;100.00;95589.41;5055888;28;20190;-78
2022/12/10 06:39:50;;;;;;;48.90;31.57;;;;;;;-0.79;100.00;95586.13;5055890;28;20182;-76
2022/12/10 06:42:15;;;;;;;50.53;32.07;;;;;;;-0.79;100.00;95590.47;5062889;28;20201;-76
2022/12/10 06:44:40;;;;;;;54.77;31.03;;;;;;;-0.85;100.00;95590.22;5059404;28;20182;-75
2022/12/10 06:47:06;;;;;;;54.13;31.77;;;;;;;-0.78;100.00;95595.41;5069620;28;20233;-78
2022/12/10 06:49:31;;;;;;;52.80;31.70;;;;;;;-0.73;100.00;95600.00;5074916;28;20586;-77
2022/12/10 06:51:56;;;;;;;51.60;31.87;;;;;;;-0.63;100.00;95598.69;5075724;28;20251;-76
2022/12/10 06:54:22;;;;;;;50.20;31.80;;;;;;;-0.62;100.00;95605.44;5057828;28;20174;-76
2022/12/10 06:56:47;;;;;;;52.43;32.83;;;;;;;-0.44;100.00;95603.19;5075101;28;20182;-76
2022/12/10 06:59:13;;;;;;;48.30;30.87;;;;;;;-0.47;100.00;95601.00;5074925;28;20631;-76
2022/12/10 07:01:39;;;;;;;48.43;31.93;;;;;;;-0.56;100.00;95603.91;5074272;28;20201;-75
2022/12/10 07:04:05;;;;;;;48.50;31.30;;;;;;;-0.69;100.00;95596.88;5049932;28;20570;-75
2022/12/10 07:06:31;;;;;;;49.00;31.47;;;;;;;-0.55;100.00;95600.31;5074986;28;20175;-76
2022/12/10 07:08:57;;;;;;;47.43;29.70;;;;;;;-0.43;100.00;95601.41;5056951;28;20188;-74
2022/12/10 07:11:24;;;;;;;48.37;31.27;;;;;;;-0.50;100.00;95605.72;5075653;28;20178;-75
2022/12/10 07:13:50;;;;;;;49.37;30.73;;;;;;;-0.57;100.00;95608.25;5075435;28;20184;-76
2022/12/10 07:16:22;;;;;;;51.47;31.93;;;;;;;-0.46;100.00;95605.16;5056858;28;20185;-74
2022/12/10 07:18:48;;;;;;;47.60;30.97;;;;;;;-0.46;100.00;95609.53;5074671;28;20268;-74
2022/12/10 07:21:18;;;;;;;49.50;30.97;;;;;;;-0.48;100.00;95617.41;5074048;28;20254;-74
2022/12/10 07:23:44;;;;;;;47.63;31.30;;;;;;;-0.41;100.00;95614.91;5074019;28;20201;-75
2022/12/10 07:26:10;;;;;;;48.03;30.33;;;;;;;-0.15;100.00;95614.25;5076111;28;20200;-81
2022/12/10 07:28:35;;;;;;;53.47;33.40;;;;;;;-0.10;100.00;95611.91;5078472;28;20521;-76
2022/12/10 07:31:06;;;;;;;48.37;32.73;;;;;;;-0.26;100.00;95615.59;5074198;28;20586;-76
2022/12/10 07:33:31;;;;;;;45.40;29.50;;;;;;;-0.33;100.00;95621.66;5074703;28;20169;-77
2022/12/10 07:35:56;;;;;;;49.03;32.00;;;;;;;-0.21;100.00;95627.88;5074580;28;20178;-77
2022/12/10 07:38:23;;;;;;;41.33;29.97;;;;;;;-0.17;100.00;95629.13;5071822;28;20267;-77
2022/12/10 07:40:49;;;;;;;40.97;28.60;;;;;;;-0.34;100.00;95630.41;5059675;28;20673;-76
2022/12/10 07:43:15;;;;;;;41.40;27.47;;;;;;;-0.34;100.00;95632.97;5055223;28;20186;-77
2022/12/10 07:45:40;;;;;;;41.40;28.57;;;;;;;-0.20;100.00;95632.06;5059415;28;20252;-75
2022/12/10 07:48:05;;;;;;;40.80;26.77;;;;;;;-0.22;100.00;95639.97;5072817;28;20228;-77
2022/12/10 07:50:31;;;;;;;38.03;26.70;;;;;;;-0.22;100.00;95639.97;5072774;28;20264;-77
2022/12/10 07:52:56;;;;;;;38.93;28.50;;;;;;;-0.34;100.00;95636.34;5073744;28;20457;-77
2022/12/10 07:55:21;;;;;;;41.63;26.50;;;;;;;-0.20;100.00;95638.00;5074044;28;20529;-77
2022/12/10 07:57:47;;;;;;;41.07;27.63;;;;;;;-0.20;100.00;95644.94;5074156;28;20178;-75
2022/12/10 08:00:13;;;;;;;44.83;27.53;;;;;;;-0.26;100.00;95643.09;5073029;28;20205;-80
2022/12/10 08:02:38;;;;;;;38.23;27.57;;;;;;;-0.04;100.00;95648.00;5073827;28;20216;-79
2022/12/10 08:05:03;;;;;;;36.93;26.87;;;;;;;0.00;100.00;95651.03;5073260;28;20558;-78
2022/12/10 08:07:29;;;;;;;39.03;26.93;;;;;;;-0.02;100.00;95647.84;5055947;28;20256;-78
2022/12/10 08:09:54;;;;;;;38.83;26.60;;;;;;;-0.03;100.00;95654.75;5055513;28;20173;-79
2022/12/10 08:12:19;;;;;;;39.97;27.03;;;;;;;-0.07;100.00;95660.47;5072774;28;20184;-78
2022/12/10 08:14:45;;;;;;;39.47;26.77;;;;;;;-0.18;100.00;95658.44;5073654;28;20535;-79
2022/12/10 08:17:10;;;;;;;39.20;26.10;;;;;;;-0.19;100.00;95654.25;5055335;28;20212;-79
2022/12/10 08:19:35;;;;;;;39.93;26.50;;;;;;;-0.30;100.00;95654.78;5073842;28;20181;-77
2022/12/10 08:22:01;;;;;;;37.37;27.00;;;;;;;-0.22;100.00;95662.34;5073622;28;20189;-78
2022/12/10 08:24:26;;;;;;;38.30;26.40;;;;;;;-0.20;100.00;95665.53;5073073;28;20294;-78
2022/12/10 08:26:51;;;;;;;41.13;26.90;;;;;;;-0.22;100.00;95665.72;5073431;28;20181;-75
2022/12/10 08:29:17;;;;;;;38.83;26.37;;;;;;;-0.26;100.00;95661.13;5073394;28;20174;-77
2022/12/10 08:31:42;;;;;;;40.23;27.73;;;;;;;-0.31;100.00;95664.28;5073495;28;20182;-79
2022/12/10 08:34:15;;;;;;;41.30;27.17;;;;;;;-0.18;100.00;95664.38;5037910;28;20212;-80
2022/12/10 08:36:42;;;;;;;37.87;26.33;;;;;;;-0.13;100.00;95666.38;5053322;28;20662;-79
2022/12/10 08:39:10;;;;;;;40.47;27.33;;;;;;;0.00;100.00;95663.91;5074916;28;20183;-78
2022/12/10 08:41:36;;;;;;;35.63;25.73;;;;;;;-0.05;100.00;95669.59;5060267;28;20198;-83
2022/12/10 08:44:01;;;;;;;44.60;28.17;;;;;;;-0.15;100.00;95665.75;5035427;28;20273;-84
2022/12/10 08:46:26;;;;;;;43.53;28.40;;;;;;;-0.12;100.00;95671.34;5062954;28;20189;-75
2022/12/10 08:48:52;;;;;;;36.73;26.27;;;;;;;-0.11;100.00;95678.06;5070118;28;20192;-78
2022/12/10 08:51:18;;;;;;;37.83;25.93;;;;;;;0.00;100.00;95679.34;5057635;28;20221;-79
2022/12/10 08:53:44;;;;;;;39.43;26.73;;;;;;;0.14;100.00;95678.44;5070653;28;20177;-80
2022/12/10 08:56:10;;;;;;;37.90;26.43;;;;;;;0.22;100.00;95680.88;5061834;28;20700;-79
2022/12/10 08:58:37;;;;;;;36.27;25.80;;;;;;;0.15;100.00;95686.97;5073340;28;20185;-84
2022/12/10 09:01:10;;;;;;;42.33;27.33;;;;;;;0.42;100.00;95688.72;5060970;28;20202;-81
2022/12/10 09:03:37;;;;;;;37.83;26.43;;;;;;;0.33;100.00;95695.81;5053287;28;20249;-81
2022/12/10 09:06:08;;;;;;;35.73;25.47;;;;;;;0.38;100.00;95688.31;5053077;28;20647;-79
2022/12/10 09:08:34;;;;;;;38.23;26.47;;;;;;;0.05;100.00;95691.66;5054731;28;20178;-78
2022/12/10 09:11:12;;;;;;;36.77;25.67;;;;;;;0.07;100.00;95698.22;5052957;28;20184;-75
2022/12/10 09:13:37;;;;;;;36.07;26.27;;;;;;;0.16;100.00;95696.28;5068080;28;20579;-75
2022/12/10 09:16:03;;;;;;;36.63;24.93;;;;;;;0.13;100.00;95699.22;5072388;28;20184;-75
2022/12/10 09:18:29;;;;;;;39.57;26.00;;;;;;;0.03;100.00;95698.78;5072591;28;20193;-76
2022/12/10 09:20:54;;;;;;;37.53;28.23;;;;;;;0.08;100.00;95701.59;5068074;28;20213;-75
2022/12/10 09:23:19;;;;;;;36.50;26.73;;;;;;;0.02;100.00;95705.69;5052725;28;20182;-76
2022/12/10 09:25:45;;;;;;;37.17;26.33;;;;;;;0.15;100.00;95705.00;5057833;28;20207;-75
2022/12/10 09:28:10;;;;;;;37.47;25.90;;;;;;;0.16;100.00;95712.56;5072207;28;20185;-74
2022/12/10 09:30:36;;;;;;;38.50;26.57;;;;;;;0.10;100.00;95715.06;5072351;28;20260;-73
2022/12/10 09:33:01;;;;;;;41.43;26.63;;;;;;;0.14;100.00;95718.84;5072374;28;20220;-74
2022/12/10 09:35:27;;;;;;;37.43;25.60;;;;;;;0.09;100.00;95710.91;5072860;28;20169;-74
2022/12/10 09:37:52;;;;;;;37.40;26.27;;;;;;;-0.06;100.00;95711.00;5066503;28;20261;-76
2022/12/10 09:40:28;;;;;;;37.23;25.60;;;;;;;0.09;100.00;95716.84;5052680;28;20268;-75
2022/12/10 09:43:06;;;;;;;36.57;26.63;;;;;;;0.03;100.00;95711.66;5068548;28;20279;-74
2022/12/10 09:45:50;;;;;;;37.07;26.80;;;;;;;0.25;100.00;95719.13;5072085;28;20172;-74
2022/12/10 09:48:46;;;;;;;39.40;25.83;;;;;;;0.48;100.00;95716.31;5070554;28;20302;-74
2022/12/10 09:51:22;;;;;;;36.50;26.57;;;;;;;0.83;100.00;95715.28;5052308;28;20239;-74
2022/12/10 09:53:58;;;;;;;34.00;24.90;;;;;;;0.54;100.00;95719.91;5052523;28;20322;-75
2022/12/10 09:56:28;;;;;;;36.90;27.83;;;;;;;0.44;100.00;95719.47;5034256;28;20190;-74
2022/12/10 09:58:54;;;;;;;34.33;24.43;;;;;;;0.56;100.00;95720.53;5060508;28;20552;-78
2022/12/10 10:01:24;;;;;;;35.07;26.13;;;;;;;0.53;100.00;95713.16;5041724;28;20273;-77
2022/12/10 10:03:49;;;;;;;36.83;25.10;;;;;;;0.50;100.00;95716.13;5061866;28;20176;-77
2022/12/10 10:06:15;;;;;;;37.03;25.33;;;;;;;0.78;100.00;95717.63;5065469;28;20194;-77
2022/12/10 10:08:46;;;;;;;36.33;24.53;;;;;;;0.72;100.00;95712.47;5062075;28;20173;-78
2022/12/10 10:11:17;;;;;;;38.17;24.83;;;;;;;0.57;100.00;95714.34;5071980;28;20174;-76
2022/12/10 10:14:11;;;;;;;32.73;23.87;;;;;;;0.64;100.00;95720.34;5053003;28;20174;-76
2022/12/10 10:16:49;;;;;;;29.87;22.87;;;;;;;0.76;100.00;95716.25;5047797;28;20210;-77
2022/12/10 10:19:18;;;;;;;33.50;24.03;;;;;;;0.56;100.00;95716.13;5066508;28;20212;-78
2022/12/10 10:21:47;;;;;;;36.90;25.63;;;;;;;0.79;100.00;95714.06;5058345;28;20198;-78
2022/12/10 10:24:16;;;;;;;33.50;24.40;;;;;;;0.70;100.00;95719.59;5053006;28;20572;-80
2022/12/10 10:26:41;;;;;;;32.87;23.47;;;;;;;0.71;100.00;95716.03;5053453;28;20186;-78
2022/12/10 10:29:10;;;;;;;36.30;25.83;;;;;;;0.77;100.00;95708.31;5048480;28;20185;-79
2022/12/10 10:31:40;;;;;;;34.90;27.27;;;;;;;0.73;100.00;95708.88;5073540;28;20193;-79
2022/12/10 10:34:17;;;;;;;33.07;25.20;;;;;;;0.66;100.00;95708.88;5059157;28;20251;-78
2022/12/10 10:36:44;;;;;;;36.20;25.20;;;;;;;0.65;100.00;95706.47;5058621;28;20177;-78
2022/12/10 10:39:11;;;;;;;32.17;26.03;;;;;;;0.73;100.00;95708.88;5063336;28;20190;-77
2022/12/10 10:41:39;;;;;;;31.73;23.70;;;;;;;0.63;100.00;95709.25;5056839;28;20772;-77
2022/12/10 10:44:15;;;;;;;33.87;23.43;;;;;;;0.55;100.00;95706.03;5074713;28;20208;-78
2022/12/10 10:46:41;;;;;;;32.77;24.67;;;;;;;0.45;100.00;95706.34;5070276;28;20181;-76
2022/12/10 10:49:22;;;;;;;33.13;23.97;;;;;;;0.53;100.00;95702.84;5064604;28;20185;-77
2022/12/10 10:51:48;;;;;;;33.63;23.47;;;;;;;0.67;100.00;95710.44;5074481;28;20535;-77
2022/12/10 10:54:36;;;;;;;34.97;24.13;;;;;;;0.96;100.00;95718.88;5074680;28;20190;-77
2022/12/10 10:57:33;;;;;;;32.50;24.30;;;;;;;0.62;100.00;95719.72;5075001;28;20204;-78
2022/12/10 11:00:17;;;;;;;31.73;22.90;;;;;;;0.46;100.00;95723.41;5069399;28;20177;-77
2022/12/10 11:02:43;;;;;;;32.73;23.03;;;;;;;0.92;100.00;95722.84;5057938;28;20246;-78
2022/12/10 11:05:22;;;;;;;33.73;24.23;;;;;;;0.77;100.00;95728.16;5066468;28;20189;-77
2022/12/10 11:07:48;;;;;;;31.97;23.07;;;;;;;0.81;100.00;95732.72;5074591;28;20178;-76
2022/12/10 11:10:20;;;;;;;33.13;22.80;;;;;;;0.99;100.00;95734.00;5057881;28;20232;-77
2022/12/10 11:12:55;;;;;;;32.57;22.50;;;;;;;0.67;100.00;95728.47;5073892;28;20258;-76
2022/12/10 11:15:24;;;;;;;34.07;24.07;;;;;;;0.86;100.00;95737.31;5074328;28;20188;-78
2022/12/10 11:17:51;;;;;;;30.83;23.10;;;;;;;0.75;100.00;95738.66;5073909;28;20190;-78
2022/12/10 11:20:18;;;;;;;31.30;23.67;;;;;;;0.84;100.00;95740.06;5056140;28;20194;-77
2022/12/10 11:22:57;;;;;;;32.13;23.33;;;;;;;0.73;100.00;95738.03;5056370;28;20599;-79
2022/12/10 11:25:57;;;;;;;30.97;23.80;;;;;;;0.74;100.00;95734.47;5073699;28;20188;-77
2022/12/10 11:28:58;;;;;;;29.63;23.07;;;;;;;0.54;100.00;95743.09;5070128;28;20710;-77
2022/12/10 11:31:42;;;;;;;35.90;25.57;;;;;;;0.93;100.00;95742.50;5064878;28;20185;-79
2022/12/10 11:34:19;;;;;;;34.47;23.80;;;;;;;1.23;100.00;95747.16;5055786;28;20546;-77
2022/12/10 11:37:10;;;;;;;34.03;23.83;;;;;;;1.20;100.00;95742.41;5068913;28;20637;-77
2022/12/10 11:40:02;;;;;;;33.90;22.17;;;;;;;0.87;100.00;95746.66;5061433;28;20216;-79
2022/12/10 11:42:28;;;;;;;31.13;22.43;;;;;;;1.06;100.00;95740.75;5054629;28;20202;-77
2022/12/10 11:45:01;;;;;;;32.80;22.73;;;;;;;0.99;100.00;95734.00;5054805;28;20190;-76